createdAt,value
2022-07-31T00:00:31.674Z,83.90
2022-07-31T00:03:01.880Z,84.10
2022-07-31T00:05:31.134Z,84.60
2022-07-31T00:08:00.475Z,84.30
2022-07-31T00:10:29.333Z,84.40
2022-07-31T00:12:58.106Z,84.20
2022-07-31T00:15:26.826Z,84.40
2022-07-31T00:17:55.522Z,84.70
2022-07-31T00:20:25.773Z,84.90
2022-07-31T00:22:54.976Z,85.90
2022-07-31T00:25:23.721Z,85.60
2022-07-31T00:27:52.463Z,85.70
2022-07-31T00:30:21.220Z,85.90
2022-07-31T00:32:51.811Z,86.40
2022-07-31T00:35:20.920Z,86.50
2022-07-31T00:37:54.790Z,86.50
2022-07-31T00:40:31.047Z,86.80
2022-07-31T00:43:00.859Z,86.80
2022-07-31T00:45:31.703Z,86.80
2022-07-31T00:48:01.652Z,87.20
2022-07-31T00:50:30.606Z,87.20
2022-07-31T00:53:00.871Z,87.30
2022-07-31T00:55:30.522Z,87.70
2022-07-31T00:58:17.268Z,87.20
2022-07-31T01:00:46.145Z,86.90
2022-07-31T01:03:15.561Z,87.10
2022-07-31T01:05:44.322Z,87.50
2022-07-31T01:08:14.428Z,87.80
2022-07-31T01:10:53.764Z,87.90
2022-07-31T01:13:32.595Z,88.40
2022-07-31T01:16:04.951Z,88.50
2022-07-31T01:18:37.511Z,88.40
2022-07-31T01:21:11.452Z,88.30
2022-07-31T01:24:17.054Z,88.60
2022-07-31T01:27:08.729Z,88.90
2022-07-31T01:29:44.073Z,88.60
2022-07-31T01:32:18.105Z,88.80
2022-07-31T01:34:53.477Z,88.80
2022-07-31T01:37:29.213Z,88.90
2022-07-31T01:40:05.126Z,88.90
2022-07-31T01:42:38.113Z,88.90
2022-07-31T01:45:11.863Z,88.90
2022-07-31T01:47:43.532Z,88.80
2022-07-31T01:50:41.783Z,88.70
2022-07-31T01:53:02.497Z,88.80
2022-07-31T01:55:56.331Z,88.90
2022-07-31T01:58:24.002Z,89.10
2022-07-31T02:00:58.488Z,89.30
2022-07-31T02:03:44.372Z,88.80
2022-07-31T02:06:18.651Z,88.90
2022-07-31T02:08:51.624Z,88.90
2022-07-31T02:11:22.568Z,89.00
2022-07-31T02:13:53.418Z,89.10
2022-07-31T02:16:26.382Z,89.30
2022-07-31T02:19:06.892Z,89.80
2022-07-31T02:21:36.465Z,89.80
2022-07-31T02:24:05.695Z,89.60
2022-07-31T02:26:36.233Z,89.80
2022-07-31T02:29:06.279Z,90.00
2022-07-31T02:31:39.628Z,90.00
2022-07-31T02:34:08.363Z,90.00
2022-07-31T02:36:38.612Z,89.90
2022-07-31T02:39:08.973Z,90.00
2022-07-31T02:41:38.193Z,90.20
2022-07-31T02:44:07.029Z,90.20
2022-07-31T02:46:39.328Z,90.10
2022-07-31T02:49:09.480Z,90.30
2022-07-31T02:51:42.738Z,90.30
2022-07-31T02:54:12.806Z,90.20
2022-07-31T02:56:43.275Z,90.30
2022-07-31T02:59:12.048Z,90.50
2022-07-31T03:02:03.622Z,90.40
2022-07-31T03:04:34.336Z,90.40
2022-07-31T03:07:03.612Z,90.40
2022-07-31T03:09:32.369Z,90.40
2022-07-31T03:12:21.581Z,90.40
2022-07-31T03:14:51.026Z,90.50
2022-07-31T03:17:21.699Z,90.40
2022-07-31T03:19:50.679Z,90.70
2022-07-31T03:22:19.746Z,90.60
2022-07-31T03:24:48.859Z,90.80
2022-07-31T03:27:21.373Z,90.80
2022-07-31T03:29:50.215Z,90.80
2022-07-31T03:32:20.624Z,90.80
2022-07-31T03:34:49.784Z,90.90
2022-07-31T03:37:19.099Z,91.10
2022-07-31T03:39:47.906Z,90.90
2022-07-31T03:42:19.218Z,91.00
2022-07-31T03:44:49.940Z,91.10
2022-07-31T03:47:21.860Z,91.20
2022-07-31T03:49:51.359Z,91.10
2022-07-31T03:52:20.236Z,91.30
2022-07-31T03:54:49.307Z,91.20
2022-07-31T03:57:26.950Z,91.30
2022-07-31T03:59:58.966Z,91.30
2022-07-31T04:02:31.890Z,91.50
2022-07-31T04:05:23.579Z,91.50
2022-07-31T04:07:52.726Z,91.50
2022-07-31T04:10:21.508Z,91.50
2022-07-31T04:12:50.215Z,91.50
2022-07-31T04:15:19.493Z,91.60
2022-07-31T04:17:49.997Z,91.60
2022-07-31T04:20:24.703Z,91.70
2022-07-31T04:22:53.505Z,91.60
2022-07-31T04:25:44.800Z,91.60
2022-07-31T04:28:43.302Z,91.70
2022-07-31T04:31:12.176Z,91.70
2022-07-31T04:33:46.443Z,91.70
2022-07-31T04:36:29.845Z,91.70
2022-07-31T04:39:01.418Z,91.90
2022-07-31T04:41:31.448Z,92.00
2022-07-31T04:44:00.572Z,92.00
2022-07-31T04:46:37.632Z,91.90
2022-07-31T04:49:07.998Z,91.80
2022-07-31T04:51:36.755Z,92.10
2022-07-31T04:54:07.180Z,92.00
2022-07-31T04:56:37.703Z,92.10
2022-07-31T04:59:11.985Z,92.20
2022-07-31T05:01:45.328Z,92.30
2022-07-31T05:04:18.688Z,92.20
2022-07-31T05:06:50.148Z,92.30
2022-07-31T05:09:25.350Z,92.20
2022-07-31T05:11:58.308Z,92.40
2022-07-31T05:14:27.255Z,92.40
2022-07-31T05:16:56.672Z,92.20
2022-07-31T05:19:30.131Z,92.30
2022-07-31T05:22:24.980Z,92.30
2022-07-31T05:25:14.978Z,92.40
2022-07-31T05:27:43.776Z,92.40
2022-07-31T05:30:14.283Z,92.30
2022-07-31T05:32:43.057Z,92.40
2022-07-31T05:35:13.246Z,92.30
2022-07-31T05:37:42.940Z,92.50
2022-07-31T05:40:14.044Z,92.30
2022-07-31T05:43:01.218Z,92.40
2022-07-31T05:45:52.811Z,92.30
2022-07-31T05:48:21.894Z,92.30
2022-07-31T05:50:53.155Z,92.10
2022-07-31T05:53:22.343Z,92.20
2022-07-31T05:56:09.839Z,92.10
2022-07-31T05:58:48.344Z,92.20
2022-07-31T06:01:18.232Z,92.40
2022-07-31T06:03:52.106Z,92.30
2022-07-31T06:06:43.002Z,92.10
2022-07-31T06:09:13.046Z,92.10
2022-07-31T06:11:45.504Z,92.20
2022-07-31T06:14:14.675Z,92.20
2022-07-31T06:17:11.816Z,92.30
2022-07-31T06:19:41.442Z,92.20
2022-07-31T06:22:12.380Z,92.00
2022-07-31T06:24:43.395Z,92.10
2022-07-31T06:27:24.087Z,92.00
2022-07-31T06:30:01.052Z,92.10
2022-07-31T06:32:29.836Z,92.00
2022-07-31T06:34:58.561Z,92.10
2022-07-31T06:37:30.158Z,92.20
2022-07-31T06:39:59.721Z,92.30
2022-07-31T06:42:48.826Z,92.40
2022-07-31T06:45:50.920Z,92.20
2022-07-31T06:48:40.175Z,91.70
2022-07-31T06:51:30.183Z,92.00
2022-07-31T06:54:02.650Z,91.80
2022-07-31T06:56:32.072Z,91.70
2022-07-31T06:59:01.966Z,91.80
2022-07-31T07:01:30.797Z,92.00
2022-07-31T07:03:59.706Z,91.70
2022-07-31T07:06:28.677Z,91.70
2022-07-31T07:08:57.583Z,91.80
2022-07-31T07:11:28.886Z,91.80
2022-07-31T07:13:57.685Z,91.70
2022-07-31T07:16:26.496Z,91.70
2022-07-31T07:18:56.101Z,91.80
2022-07-31T07:21:25.226Z,91.60
2022-07-31T07:23:54.615Z,91.40
2022-07-31T07:26:32.895Z,91.70
2022-07-31T07:29:04.474Z,91.30
2022-07-31T07:31:33.558Z,91.30
2022-07-31T07:34:06.252Z,91.40
2022-07-31T07:36:35.243Z,91.00
2022-07-31T07:39:06.521Z,91.10
2022-07-31T07:41:38.727Z,91.00
2022-07-31T07:44:08.470Z,91.10
2022-07-31T07:46:37.228Z,91.30
2022-07-31T07:49:08.139Z,91.40
2022-07-31T07:52:09.754Z,91.40
2022-07-31T07:54:41.254Z,91.50
2022-07-31T07:57:11.498Z,91.50
2022-07-31T08:00:01.466Z,91.50
2022-07-31T08:03:02.924Z,91.40
2022-07-31T08:05:38.059Z,91.30
2022-07-31T08:08:07.039Z,91.20
2022-07-31T08:10:56.209Z,91.30
2022-07-31T08:13:41.480Z,91.10
2022-07-31T08:16:28.605Z,90.90
2022-07-31T08:19:00.667Z,91.10
2022-07-31T08:21:29.610Z,91.00
2022-07-31T08:23:58.428Z,90.90
2022-07-31T08:26:28.280Z,90.70
2022-07-31T08:29:00.108Z,90.60
2022-07-31T08:31:33.908Z,90.70
2022-07-31T08:34:30.959Z,90.40
2022-07-31T08:37:51.276Z,90.40
2022-07-31T08:39:52.227Z,90.60
2022-07-31T08:42:21.131Z,90.50
2022-07-31T08:44:52.041Z,90.50
2022-07-31T08:47:28.212Z,90.50
2022-07-31T08:50:01.830Z,90.40
2022-07-31T08:52:33.035Z,90.40
2022-07-31T08:55:24.742Z,90.30
2022-07-31T08:58:04.189Z,90.10
2022-07-31T09:00:34.778Z,90.20
2022-07-31T09:03:04.871Z,89.10
2022-07-31T09:05:57.174Z,88.40
2022-07-31T09:08:26.025Z,87.80
2022-07-31T09:11:05.998Z,87.40
2022-07-31T09:13:39.131Z,85.40
2022-07-31T09:16:30.770Z,85.00
2022-07-31T09:19:03.271Z,86.00
2022-07-31T09:21:52.740Z,84.90
2022-07-31T09:24:30.836Z,83.90
2022-07-31T09:27:07.989Z,83.10
2022-07-31T09:29:42.026Z,82.10
2022-07-31T09:32:25.023Z,82.80
2022-07-31T09:35:10.960Z,82.30
2022-07-31T09:37:40.678Z,82.20
2022-07-31T09:40:40.011Z,82.80
2022-07-31T09:43:55.616Z,82.30
2022-07-31T09:46:26.747Z,82.10
2022-07-31T09:49:00.089Z,81.80
2022-07-31T09:51:40.973Z,82.00
2022-07-31T09:54:22.977Z,81.10
2022-07-31T09:57:13.602Z,81.70
2022-07-31T09:59:45.526Z,82.00
2022-07-31T10:02:17.152Z,82.10
2022-07-31T10:04:52.066Z,80.90
2022-07-31T10:07:32.812Z,81.10
2022-07-31T10:10:24.979Z,82.50
2022-07-31T10:12:58.309Z,81.30
2022-07-31T10:15:28.081Z,80.90
2022-07-31T10:18:21.196Z,81.00
2022-07-31T10:21:41.415Z,80.80
2022-07-31T10:24:13.608Z,78.70
2022-07-31T10:27:00.259Z,79.00
2022-07-31T10:29:32.570Z,80.20
2022-07-31T10:32:03.575Z,79.80
2022-07-31T10:34:35.329Z,80.80
2022-07-31T10:37:18.292Z,77.40
2022-07-31T10:40:15.301Z,76.90
2022-07-31T10:42:54.015Z,77.90
2022-07-31T10:45:23.960Z,76.80
2022-07-31T10:48:15.803Z,77.90
2022-07-31T10:51:09.712Z,78.10
2022-07-31T10:54:01.018Z,78.20
2022-07-31T10:56:50.070Z,78.20
2022-07-31T10:59:44.890Z,76.90
2022-07-31T11:02:51.957Z,76.00
2022-07-31T11:05:31.007Z,76.00
2022-07-31T11:08:44.081Z,76.00
2022-07-31T11:11:36.867Z,74.00
2022-07-31T11:14:34.453Z,75.80
2022-07-31T11:18:23.577Z,75.00
2022-07-31T11:20:28.758Z,74.50
2022-07-31T11:23:00.812Z,73.30
2022-07-31T11:25:32.406Z,73.90
2022-07-31T11:28:16.170Z,73.40
2022-07-31T11:30:56.239Z,73.00
2022-07-31T11:33:41.698Z,73.80
2022-07-31T11:36:14.323Z,72.10
2022-07-31T11:38:46.089Z,72.40
2022-07-31T11:41:16.029Z,72.10
2022-07-31T11:43:47.635Z,73.20
2022-07-31T11:46:26.164Z,71.30
2022-07-31T11:48:55.550Z,69.40
2022-07-31T11:51:25.818Z,70.00
2022-07-31T11:53:57.811Z,69.50
2022-07-31T11:56:28.326Z,70.30
2022-07-31T11:58:59.931Z,69.70
2022-07-31T12:01:30.908Z,68.60
2022-07-31T12:04:01.704Z,68.50
2022-07-31T12:06:38.568Z,68.40
2022-07-31T12:09:07.406Z,68.60
2022-07-31T12:11:56.411Z,67.40
2022-07-31T12:14:35.400Z,67.80
2022-07-31T12:17:06.709Z,67.30
2022-07-31T12:19:38.753Z,66.40
2022-07-31T12:22:15.745Z,66.10
2022-07-31T12:24:45.252Z,65.70
2022-07-31T12:27:17.438Z,66.90
2022-07-31T12:29:47.508Z,67.60
2022-07-31T12:32:26.680Z,65.70
2022-07-31T12:35:04.184Z,65.70
2022-07-31T12:37:43.954Z,66.60
2022-07-31T12:40:24.512Z,67.20
2022-07-31T12:42:53.421Z,67.10
2022-07-31T12:45:38.312Z,66.90
2022-07-31T12:48:07.945Z,67.20
2022-07-31T12:50:36.635Z,65.80
2022-07-31T12:53:06.017Z,64.80
2022-07-31T12:55:35.377Z,64.30
2022-07-31T12:58:04.180Z,64.70
2022-07-31T13:00:34.808Z,65.20
2022-07-31T13:03:08.280Z,64.40
2022-07-31T13:05:37.081Z,63.20
2022-07-31T13:08:08.260Z,64.40
2022-07-31T13:10:37.020Z,63.90
2022-07-31T13:13:05.721Z,63.70
2022-07-31T13:15:34.416Z,63.40
2022-07-31T13:18:04.138Z,63.40
2022-07-31T13:20:34.485Z,62.10
2022-07-31T13:23:05.000Z,62.00
2022-07-31T13:25:33.740Z,62.40
2022-07-31T13:28:02.854Z,61.40
2022-07-31T13:30:31.895Z,61.60
2022-07-31T13:33:00.581Z,60.10
2022-07-31T13:35:29.468Z,59.60
2022-07-31T13:37:59.637Z,59.40
2022-07-31T13:40:46.612Z,58.50
2022-07-31T13:43:15.890Z,58.90
2022-07-31T13:45:44.790Z,59.40
2022-07-31T13:48:14.072Z,59.20
2022-07-31T13:50:42.794Z,59.20
2022-07-31T13:53:13.125Z,58.40
2022-07-31T13:55:41.861Z,58.20
2022-07-31T13:58:10.551Z,58.00
2022-07-31T14:00:40.301Z,57.20
2022-07-31T14:03:09.046Z,57.50
2022-07-31T14:05:40.317Z,57.20
2022-07-31T14:08:33.333Z,56.40
2022-07-31T14:10:59.612Z,56.60
2022-07-31T14:13:29.032Z,55.40
2022-07-31T14:15:58.189Z,56.00
2022-07-31T14:18:26.983Z,55.60
2022-07-31T14:20:55.717Z,55.00
2022-07-31T14:23:27.811Z,55.00
2022-07-31T14:26:06.311Z,55.50
2022-07-31T14:28:35.673Z,55.10
2022-07-31T14:31:04.390Z,55.40
2022-07-31T14:33:33.137Z,55.40
2022-07-31T14:36:03.803Z,54.30
2022-07-31T14:38:32.474Z,54.70
2022-07-31T14:41:05.063Z,54.90
2022-07-31T14:43:33.855Z,54.80
2022-07-31T14:46:02.581Z,54.20
2022-07-31T14:48:31.275Z,54.40
2022-07-31T14:51:00.049Z,54.20
2022-07-31T14:53:28.684Z,54.10
2022-07-31T14:56:03.878Z,54.20
2022-07-31T14:58:34.338Z,54.00
2022-07-31T15:01:22.937Z,53.80
2022-07-31T15:03:55.411Z,53.70
2022-07-31T15:06:49.421Z,53.40
2022-07-31T15:09:12.869Z,53.50
2022-07-31T15:11:58.299Z,53.40
2022-07-31T15:14:31.879Z,53.10
2022-07-31T15:17:00.763Z,52.80
2022-07-31T15:19:29.495Z,52.40
2022-07-31T15:22:10.549Z,52.60
2022-07-31T15:24:48.222Z,51.90
2022-07-31T15:27:18.979Z,51.70
2022-07-31T15:30:05.765Z,52.00
2022-07-31T15:32:37.348Z,52.00
2022-07-31T15:35:09.635Z,51.80
2022-07-31T15:37:40.396Z,51.80
2022-07-31T15:40:11.905Z,52.10
2022-07-31T15:42:43.163Z,51.90
2022-07-31T15:45:16.431Z,51.80
2022-07-31T15:47:46.898Z,51.70
2022-07-31T15:50:18.919Z,51.50
2022-07-31T15:52:48.133Z,51.00
2022-07-31T15:55:17.930Z,51.90
2022-07-31T15:57:46.840Z,51.70
2022-07-31T16:00:18.001Z,52.00
2022-07-31T16:02:46.670Z,50.20
2022-07-31T16:05:22.072Z,50.90
2022-07-31T16:08:28.665Z,50.70
2022-07-31T16:10:55.068Z,50.60
2022-07-31T16:13:24.707Z,50.00
2022-07-31T16:15:55.072Z,49.80
2022-07-31T16:18:23.803Z,49.60
2022-07-31T16:20:53.104Z,49.30
2022-07-31T16:23:21.896Z,49.20
2022-07-31T16:25:50.691Z,48.60
2022-07-31T16:28:19.349Z,48.40
2022-07-31T16:30:48.046Z,48.00
2022-07-31T16:33:18.565Z,48.10
2022-07-31T16:35:47.260Z,47.90
2022-07-31T16:38:15.913Z,48.10
2022-07-31T16:40:44.835Z,48.30
2022-07-31T16:43:49.201Z,47.70
2022-07-31T16:46:02.145Z,47.30
2022-07-31T16:48:32.155Z,47.10
2022-07-31T16:51:01.393Z,46.60
2022-07-31T16:54:13.221Z,46.50
2022-07-31T16:56:20.508Z,46.60
2022-07-31T16:58:53.981Z,46.80
2022-07-31T17:01:54.021Z,46.20
2022-07-31T17:04:13.891Z,46.40
2022-07-31T17:06:49.468Z,45.10
2022-07-31T17:09:18.790Z,45.00
2022-07-31T17:11:49.996Z,45.70
2022-07-31T17:14:20.444Z,45.40
2022-07-31T17:16:50.750Z,46.20
2022-07-31T17:19:41.392Z,45.30
2022-07-31T17:22:17.510Z,44.80
2022-07-31T17:24:50.503Z,45.20
2022-07-31T17:27:20.705Z,45.60
2022-07-31T17:29:50.052Z,45.00
2022-07-31T17:32:20.439Z,45.30
2022-07-31T17:34:50.702Z,45.30
2022-07-31T17:37:19.661Z,45.80
2022-07-31T17:39:49.080Z,45.30
2022-07-31T17:45:08.141Z,45.10
2022-07-31T17:47:07.064Z,45.10
2022-07-31T17:47:39.954Z,45.70
2022-07-31T17:50:11.441Z,45.90
2022-07-31T17:52:42.105Z,45.80
2022-07-31T17:55:11.151Z,45.10
2022-07-31T17:57:40.033Z,45.10
2022-07-31T18:00:10.738Z,45.40
2022-07-31T18:02:39.560Z,45.60
2022-07-31T18:05:10.742Z,45.10
2022-07-31T18:07:40.294Z,45.00
2022-07-31T18:10:12.864Z,45.00
2022-07-31T18:12:57.200Z,45.20
2022-07-31T18:15:35.759Z,45.00
2022-07-31T18:18:05.537Z,44.90
2022-07-31T18:20:36.208Z,44.80
2022-07-31T18:23:05.521Z,44.70
2022-07-31T18:25:41.900Z,44.60
2022-07-31T18:28:11.020Z,44.20
2022-07-31T18:30:41.365Z,44.80
2022-07-31T18:33:12.868Z,44.80
2022-07-31T18:35:43.566Z,44.60
2022-07-31T18:38:13.126Z,44.50
2022-07-31T18:40:42.429Z,45.00
2022-07-31T18:43:11.784Z,45.20
2022-07-31T18:45:41.588Z,45.20
2022-07-31T18:48:11.325Z,44.90
2022-07-31T18:50:59.378Z,44.80
2022-07-31T18:53:30.616Z,44.80
2022-07-31T18:55:59.847Z,45.10
2022-07-31T18:58:29.083Z,45.50
2022-07-31T19:00:58.143Z,45.10
2022-07-31T19:03:29.942Z,45.00
2022-07-31T19:05:59.781Z,45.00
2022-07-31T19:08:30.500Z,45.30
2022-07-31T19:10:59.574Z,45.60
2022-07-31T19:13:29.420Z,46.00
2022-07-31T19:15:58.360Z,46.30
2022-07-31T19:18:28.494Z,45.90
2022-07-31T19:21:21.355Z,46.30
2022-07-31T19:23:48.752Z,46.00
2022-07-31T19:26:18.118Z,46.20
2022-07-31T19:28:47.556Z,46.10
2022-07-31T19:31:19.589Z,46.40
2022-07-31T19:33:51.123Z,46.60
2022-07-31T19:36:22.350Z,47.10
2022-07-31T19:39:05.825Z,47.40
2022-07-31T19:41:35.096Z,47.80
2022-07-31T19:44:07.226Z,47.40
2022-07-31T19:46:37.085Z,47.70
2022-07-31T19:49:09.394Z,47.80
2022-07-31T19:51:40.303Z,48.00
2022-07-31T19:54:15.998Z,48.20
2022-07-31T19:56:49.762Z,48.70
2022-07-31T19:59:20.426Z,48.70
2022-07-31T20:01:50.773Z,48.70
2022-07-31T20:04:20.126Z,49.10
2022-07-31T20:06:48.991Z,48.70
2022-07-31T20:09:22.249Z,49.20
2022-07-31T20:11:52.149Z,49.50
2022-07-31T20:14:23.672Z,49.50
2022-07-31T20:16:55.807Z,49.80
2022-07-31T20:19:24.950Z,49.40
2022-07-31T20:21:57.913Z,49.70
2022-07-31T20:24:30.744Z,50.00
2022-07-31T20:27:02.672Z,49.90
2022-07-31T20:29:32.891Z,49.90
2022-07-31T20:32:08.078Z,50.10
2022-07-31T20:34:38.617Z,51.00
2022-07-31T20:37:10.458Z,50.50
2022-07-31T20:39:41.000Z,50.60
2022-07-31T20:42:10.010Z,50.80
2022-07-31T20:44:41.651Z,50.80
2022-07-31T20:47:13.218Z,51.00
2022-07-31T20:49:42.513Z,51.30
2022-07-31T20:52:11.727Z,51.80
2022-07-31T20:54:42.430Z,51.90
2022-07-31T20:57:11.420Z,51.80
2022-07-31T20:59:40.697Z,52.20
2022-07-31T21:02:10.133Z,52.20
2022-07-31T21:04:39.409Z,52.50
2022-07-31T21:07:11.406Z,52.70
2022-07-31T21:09:43.015Z,52.90
2022-07-31T21:12:29.623Z,53.20
2022-07-31T21:15:01.422Z,53.60
2022-07-31T21:17:33.096Z,53.60
2022-07-31T21:20:07.368Z,54.10
2022-07-31T21:22:39.660Z,53.40
2022-07-31T21:25:13.876Z,53.70
2022-07-31T21:27:44.046Z,54.40
2022-07-31T21:30:14.294Z,54.00
2022-07-31T21:32:44.511Z,54.70
2022-07-31T21:35:35.939Z,54.50
2022-07-31T21:38:14.537Z,54.90
2022-07-31T21:40:46.499Z,54.70
2022-07-31T21:43:22.796Z,54.80
2022-07-31T21:45:57.540Z,55.30
2022-07-31T21:48:38.417Z,55.60
2022-07-31T21:51:14.497Z,55.80
2022-07-31T21:53:47.965Z,56.20
2022-07-31T21:56:18.298Z,56.10
2022-07-31T21:58:47.470Z,56.30
2022-07-31T22:01:16.896Z,56.70
2022-07-31T22:03:45.691Z,57.00
2022-07-31T22:06:36.747Z,57.40
2022-07-31T22:09:08.507Z,57.70
2022-07-31T22:11:39.322Z,57.60
2022-07-31T22:14:11.445Z,57.90
2022-07-31T22:16:40.689Z,58.00
2022-07-31T22:19:18.096Z,58.10
2022-07-31T22:21:47.690Z,58.80
2022-07-31T22:24:24.432Z,58.40
2022-07-31T22:27:19.695Z,59.20
2022-07-31T22:29:52.550Z,59.10
2022-07-31T22:32:24.421Z,59.60
2022-07-31T22:35:02.491Z,59.30
2022-07-31T22:37:32.182Z,59.50
2022-07-31T22:40:04.652Z,59.70
2022-07-31T22:42:39.117Z,60.00
2022-07-31T22:45:11.093Z,60.40
2022-07-31T22:47:41.480Z,60.30
2022-07-31T22:50:15.756Z,60.60
2022-07-31T22:52:45.420Z,61.40
2022-07-31T22:55:14.967Z,61.10
2022-07-31T22:57:48.659Z,60.80
2022-07-31T23:00:19.559Z,62.10
2022-07-31T23:02:51.478Z,62.10
2022-07-31T23:05:21.638Z,62.00
2022-07-31T23:07:50.398Z,62.50
2022-07-31T23:10:19.216Z,63.00
2022-07-31T23:12:49.233Z,62.90
2022-07-31T23:15:17.922Z,63.00
2022-07-31T23:17:46.574Z,63.20
2022-07-31T23:20:15.505Z,63.70
2022-07-31T23:22:44.203Z,63.90
2022-07-31T23:25:14.960Z,64.10
2022-07-31T23:27:43.613Z,64.30
2022-07-31T23:30:14.567Z,65.10
2022-07-31T23:32:43.228Z,65.50
2022-07-31T23:35:11.956Z,65.40
2022-07-31T23:37:40.649Z,65.60
2022-07-31T23:40:10.840Z,65.40
2022-07-31T23:42:39.589Z,65.90
2022-07-31T23:45:12.148Z,66.00
2022-07-31T23:47:45.135Z,66.60
2022-07-31T23:50:16.161Z,67.10
2022-07-31T23:52:45.090Z,67.50
2022-07-31T23:55:14.190Z,67.40
2022-07-31T23:57:43.445Z,67.60
